sensor_id;sensor_type;location;lat;lon;timestamp;temperature;humidity
12557;DHT22;6344;49.932;8.308;2023-07-29T00:02:00;17.60;99.90
12557;DHT22;6344;49.932;8.308;2023-07-29T00:04:27;17.50;99.90
12557;DHT22;6344;49.932;8.308;2023-07-29T00:06:53;17.50;99.90
12557;DHT22;6344;49.932;8.308;2023-07-29T00:09:20;17.60;99.90
12557;DHT22;6344;49.932;8.308;2023-07-29T00:11:46;17.70;99.90
12557;DHT22;6344;49.932;8.308;2023-07-29T00:14:14;17.70;99.90
12557;DHT22;6344;49.932;8.308;2023-07-29T00:16:41;17.70;99.90
12557;DHT22;6344;49.932;8.308;2023-07-29T00:19:08;17.70;99.90
12557;DHT22;6344;49.932;8.308;2023-07-29T00:21:35;17.80;99.90
12557;DHT22;6344;49.932;8.308;2023-07-29T00:24:02;17.60;99.90
12557;DHT22;6344;49.932;8.308;2023-07-29T00:26:28;17.70;99.90
12557;DHT22;6344;49.932;8.308;2023-07-29T00:28:55;17.70;99.90
12557;DHT22;6344;49.932;8.308;2023-07-29T00:31:23;17.60;99.90
12557;DHT22;6344;49.932;8.308;2023-07-29T00:33:49;17.60;99.90
12557;DHT22;6344;49.932;8.308;2023-07-29T00:36:18;17.50;99.90
12557;DHT22;6344;49.932;8.308;2023-07-29T00:38:44;17.50;99.90
12557;DHT22;6344;49.932;8.308;2023-07-29T00:41:11;17.60;99.90
12557;DHT22;6344;49.932;8.308;2023-07-29T00:43:39;17.60;99.90
12557;DHT22;6344;49.932;8.308;2023-07-29T00:46:07;17.80;99.90
12557;DHT22;6344;49.932;8.308;2023-07-29T00:48:36;17.70;99.90
12557;DHT22;6344;49.932;8.308;2023-07-29T00:51:03;18.00;99.90
12557;DHT22;6344;49.932;8.308;2023-07-29T00:53:30;18.00;99.90
12557;DHT22;6344;49.932;8.308;2023-07-29T00:55:57;18.00;99.90
12557;DHT22;6344;49.932;8.308;2023-07-29T00:58:23;18.00;99.90
12557;DHT22;6344;49.932;8.308;2023-07-29T01:00:50;18.00;99.90
12557;DHT22;6344;49.932;8.308;2023-07-29T01:03:17;18.00;99.90
12557;DHT22;6344;49.932;8.308;2023-07-29T01:05:58;18.10;99.90
12557;DHT22;6344;49.932;8.308;2023-07-29T01:08:31;18.10;99.90
12557;DHT22;6344;49.932;8.308;2023-07-29T01:11:06;18.00;99.90
12557;DHT22;6344;49.932;8.308;2023-07-29T01:13:44;18.00;99.90
12557;DHT22;6344;49.932;8.308;2023-07-29T01:16:15;18.00;99.90
12557;DHT22;6344;49.932;8.308;2023-07-29T01:18:45;18.00;99.90
12557;DHT22;6344;49.932;8.308;2023-07-29T01:21:16;18.10;99.90
12557;DHT22;6344;49.932;8.308;2023-07-29T01:23:44;18.10;99.90
12557;DHT22;6344;49.932;8.308;2023-07-29T01:26:11;18.10;99.90
12557;DHT22;6344;49.932;8.308;2023-07-29T01:28:38;18.10;99.90
12557;DHT22;6344;49.932;8.308;2023-07-29T01:31:10;18.20;99.90
12557;DHT22;6344;49.932;8.308;2023-07-29T01:33:42;18.20;99.90
12557;DHT22;6344;49.932;8.308;2023-07-29T01:36:14;18.30;99.90
12557;DHT22;6344;49.932;8.308;2023-07-29T01:38:44;18.20;99.90
12557;DHT22;6344;49.932;8.308;2023-07-29T01:41:11;18.20;99.90
12557;DHT22;6344;49.932;8.308;2023-07-29T01:43:39;18.20;99.90
12557;DHT22;6344;49.932;8.308;2023-07-29T01:46:09;18.30;99.90
12557;DHT22;6344;49.932;8.308;2023-07-29T01:48:36;18.30;99.90
12557;DHT22;6344;49.932;8.308;2023-07-29T01:51:03;18.30;99.90
12557;DHT22;6344;49.932;8.308;2023-07-29T01:53:30;18.30;99.90
12557;DHT22;6344;49.932;8.308;2023-07-29T01:55:58;18.40;99.90
12557;DHT22;6344;49.932;8.308;2023-07-29T01:58:25;18.40;99.90
12557;DHT22;6344;49.932;8.308;2023-07-29T02:00:52;18.40;99.90
12557;DHT22;6344;49.932;8.308;2023-07-29T02:03:18;18.50;99.90
12557;DHT22;6344;49.932;8.308;2023-07-29T02:05:45;18.40;99.90
12557;DHT22;6344;49.932;8.308;2023-07-29T02:08:12;18.40;99.90
12557;DHT22;6344;49.932;8.308;2023-07-29T02:10:39;18.40;99.90
12557;DHT22;6344;49.932;8.308;2023-07-29T02:13:07;18.40;99.90
12557;DHT22;6344;49.932;8.308;2023-07-29T02:15:34;18.30;99.90
12557;DHT22;6344;49.932;8.308;2023-07-29T02:18:00;18.40;99.90
12557;DHT22;6344;49.932;8.308;2023-07-29T02:20:28;18.30;99.90
12557;DHT22;6344;49.932;8.308;2023-07-29T02:22:55;18.20;99.90
12557;DHT22;6344;49.932;8.308;2023-07-29T02:25:22;18.30;99.90
12557;DHT22;6344;49.932;8.308;2023-07-29T02:27:48;18.20;99.90
12557;DHT22;6344;49.932;8.308;2023-07-29T02:30:16;18.20;99.90
12557;DHT22;6344;49.932;8.308;2023-07-29T02:32:43;18.10;99.90
12557;DHT22;6344;49.932;8.308;2023-07-29T02:35:10;18.20;99.90
12557;DHT22;6344;49.932;8.308;2023-07-29T02:37:36;18.10;99.90
12557;DHT22;6344;49.932;8.308;2023-07-29T02:40:03;18.10;99.90
12557;DHT22;6344;49.932;8.308;2023-07-29T02:42:31;18.10;99.90
12557;DHT22;6344;49.932;8.308;2023-07-29T02:44:58;18.20;99.90
12557;DHT22;6344;49.932;8.308;2023-07-29T02:47:26;18.10;99.90
12557;DHT22;6344;49.932;8.308;2023-07-29T02:49:52;18.10;99.90
12557;DHT22;6344;49.932;8.308;2023-07-29T02:52:19;18.10;99.90
12557;DHT22;6344;49.932;8.308;2023-07-29T02:54:46;18.00;99.90
12557;DHT22;6344;49.932;8.308;2023-07-29T02:57:13;18.00;99.90
12557;DHT22;6344;49.932;8.308;2023-07-29T02:59:40;18.00;99.90
12557;DHT22;6344;49.932;8.308;2023-07-29T03:02:06;17.90;99.90
12557;DHT22;6344;49.932;8.308;2023-07-29T03:04:34;17.90;99.90
12557;DHT22;6344;49.932;8.308;2023-07-29T03:07:01;17.80;99.90
12557;DHT22;6344;49.932;8.308;2023-07-29T03:09:28;17.70;99.90
12557;DHT22;6344;49.932;8.308;2023-07-29T03:11:54;17.60;99.90
12557;DHT22;6344;49.932;8.308;2023-07-29T03:14:22;17.50;99.90
12557;DHT22;6344;49.932;8.308;2023-07-29T03:16:49;17.40;99.90
12557;DHT22;6344;49.932;8.308;2023-07-29T03:19:15;17.50;99.90
12557;DHT22;6344;49.932;8.308;2023-07-29T03:21:43;17.60;99.90
12557;DHT22;6344;49.932;8.308;2023-07-29T03:24:11;17.60;99.90
12557;DHT22;6344;49.932;8.308;2023-07-29T03:26:37;17.60;99.90
12557;DHT22;6344;49.932;8.308;2023-07-29T03:29:04;17.70;99.90
12557;DHT22;6344;49.932;8.308;2023-07-29T03:31:31;17.70;99.90
12557;DHT22;6344;49.932;8.308;2023-07-29T03:33:57;17.70;99.90
12557;DHT22;6344;49.932;8.308;2023-07-29T03:36:24;17.60;99.90
12557;DHT22;6344;49.932;8.308;2023-07-29T03:38:52;17.60;99.90
12557;DHT22;6344;49.932;8.308;2023-07-29T03:41:18;17.50;99.90
12557;DHT22;6344;49.932;8.308;2023-07-29T03:43:45;17.40;99.90
12557;DHT22;6344;49.932;8.308;2023-07-29T03:46:12;17.30;99.90
12557;DHT22;6344;49.932;8.308;2023-07-29T03:48:38;17.20;99.90
12557;DHT22;6344;49.932;8.308;2023-07-29T03:51:05;17.20;99.90
12557;DHT22;6344;49.932;8.308;2023-07-29T03:53:32;17.10;99.90
12557;DHT22;6344;49.932;8.308;2023-07-29T03:56:00;17.10;99.90
12557;DHT22;6344;49.932;8.308;2023-07-29T03:58:26;17.00;99.90
12557;DHT22;6344;49.932;8.308;2023-07-29T04:00:53;17.00;99.90
12557;DHT22;6344;49.932;8.308;2023-07-29T04:03:20;17.00;99.90
12557;DHT22;6344;49.932;8.308;2023-07-29T04:05:46;16.90;99.90
12557;DHT22;6344;49.932;8.308;2023-07-29T04:08:13;16.90;99.90
12557;DHT22;6344;49.932;8.308;2023-07-29T04:10:40;17.00;99.90
12557;DHT22;6344;49.932;8.308;2023-07-29T04:13:08;17.10;99.90
12557;DHT22;6344;49.932;8.308;2023-07-29T04:15:34;17.10;99.90
12557;DHT22;6344;49.932;8.308;2023-07-29T04:18:01;17.00;99.90
12557;DHT22;6344;49.932;8.308;2023-07-29T04:20:28;16.90;99.90
12557;DHT22;6344;49.932;8.308;2023-07-29T04:22:54;16.80;99.90
12557;DHT22;6344;49.932;8.308;2023-07-29T04:25:21;16.80;99.90
12557;DHT22;6344;49.932;8.308;2023-07-29T04:27:47;16.80;99.90
12557;DHT22;6344;49.932;8.308;2023-07-29T04:30:15;16.80;99.90
12557;DHT22;6344;49.932;8.308;2023-07-29T04:32:42;16.80;99.90
12557;DHT22;6344;49.932;8.308;2023-07-29T04:35:10;16.80;99.90
12557;DHT22;6344;49.932;8.308;2023-07-29T04:37:37;16.80;99.90
12557;DHT22;6344;49.932;8.308;2023-07-29T04:40:04;16.90;99.90
12557;DHT22;6344;49.932;8.308;2023-07-29T04:42:31;16.90;99.90
12557;DHT22;6344;49.932;8.308;2023-07-29T04:44:57;16.90;99.90
12557;DHT22;6344;49.932;8.308;2023-07-29T04:47:25;17.00;99.90
12557;DHT22;6344;49.932;8.308;2023-07-29T04:49:52;17.00;99.90
12557;DHT22;6344;49.932;8.308;2023-07-29T04:52:19;17.10;99.90
12557;DHT22;6344;49.932;8.308;2023-07-29T04:54:46;17.10;99.90
12557;DHT22;6344;49.932;8.308;2023-07-29T04:57:12;17.20;99.90
12557;DHT22;6344;49.932;8.308;2023-07-29T04:59:39;17.30;99.90
12557;DHT22;6344;49.932;8.308;2023-07-29T05:02:06;17.50;99.90
12557;DHT22;6344;49.932;8.308;2023-07-29T05:04:33;17.60;99.90
12557;DHT22;6344;49.932;8.308;2023-07-29T05:07:00;17.70;99.90
12557;DHT22;6344;49.932;8.308;2023-07-29T05:09:27;17.80;99.90
12557;DHT22;6344;49.932;8.308;2023-07-29T05:11:53;17.90;99.90
12557;DHT22;6344;49.932;8.308;2023-07-29T05:14:20;17.90;99.90
12557;DHT22;6344;49.932;8.308;2023-07-29T05:16:47;18.00;99.90
12557;DHT22;6344;49.932;8.308;2023-07-29T05:19:13;18.10;99.90
12557;DHT22;6344;49.932;8.308;2023-07-29T05:21:41;18.30;99.90
12557;DHT22;6344;49.932;8.308;2023-07-29T05:24:08;18.40;99.90
12557;DHT22;6344;49.932;8.308;2023-07-29T05:26:34;18.50;99.90
12557;DHT22;6344;49.932;8.308;2023-07-29T05:29:01;18.60;99.90
12557;DHT22;6344;49.932;8.308;2023-07-29T05:31:29;18.60;99.90
12557;DHT22;6344;49.932;8.308;2023-07-29T05:33:56;18.80;99.90
12557;DHT22;6344;49.932;8.308;2023-07-29T05:36:22;18.90;99.90
12557;DHT22;6344;49.932;8.308;2023-07-29T05:38:51;19.00;99.90
12557;DHT22;6344;49.932;8.308;2023-07-29T05:41:18;19.00;99.90
12557;DHT22;6344;49.932;8.308;2023-07-29T05:43:45;19.00;99.90
12557;DHT22;6344;49.932;8.308;2023-07-29T05:46:12;18.90;99.90
12557;DHT22;6344;49.932;8.308;2023-07-29T05:48:38;19.00;99.90
12557;DHT22;6344;49.932;8.308;2023-07-29T05:51:05;19.10;99.90
12557;DHT22;6344;49.932;8.308;2023-07-29T05:53:32;19.20;99.90
12557;DHT22;6344;49.932;8.308;2023-07-29T05:56:00;19.20;99.90
12557;DHT22;6344;49.932;8.308;2023-07-29T05:58:26;19.10;99.90
12557;DHT22;6344;49.932;8.308;2023-07-29T06:00:53;19.20;99.90
12557;DHT22;6344;49.932;8.308;2023-07-29T06:03:20;19.00;99.90
12557;DHT22;6344;49.932;8.308;2023-07-29T06:05:46;19.00;99.90
12557;DHT22;6344;49.932;8.308;2023-07-29T06:08:13;19.00;99.90
12557;DHT22;6344;49.932;8.308;2023-07-29T06:10:40;19.10;99.90
12557;DHT22;6344;49.932;8.308;2023-07-29T06:13:07;19.10;99.90
12557;DHT22;6344;49.932;8.308;2023-07-29T06:15:34;19.10;99.90
12557;DHT22;6344;49.932;8.308;2023-07-29T06:18:01;19.10;99.90
12557;DHT22;6344;49.932;8.308;2023-07-29T06:20:28;19.20;99.90
12557;DHT22;6344;49.932;8.308;2023-07-29T06:22:55;19.30;99.90
12557;DHT22;6344;49.932;8.308;2023-07-29T06:25:21;19.40;99.90
12557;DHT22;6344;49.932;8.308;2023-07-29T06:27:48;19.30;99.90
12557;DHT22;6344;49.932;8.308;2023-07-29T06:30:16;19.30;99.90
12557;DHT22;6344;49.932;8.308;2023-07-29T06:32:43;19.40;99.90
12557;DHT22;6344;49.932;8.308;2023-07-29T06:35:10;19.30;99.90
12557;DHT22;6344;49.932;8.308;2023-07-29T06:37:36;19.30;99.90
12557;DHT22;6344;49.932;8.308;2023-07-29T06:40:04;19.30;99.90
12557;DHT22;6344;49.932;8.308;2023-07-29T06:42:30;19.20;99.90
12557;DHT22;6344;49.932;8.308;2023-07-29T06:44:57;19.20;99.90
12557;DHT22;6344;49.932;8.308;2023-07-29T06:47:25;19.10;99.90
12557;DHT22;6344;49.932;8.308;2023-07-29T06:49:53;19.00;99.90
12557;DHT22;6344;49.932;8.308;2023-07-29T06:52:20;19.10;99.90
12557;DHT22;6344;49.932;8.308;2023-07-29T06:54:46;19.10;99.90
12557;DHT22;6344;49.932;8.308;2023-07-29T06:57:13;19.10;99.90
12557;DHT22;6344;49.932;8.308;2023-07-29T06:59:39;19.00;99.90
12557;DHT22;6344;49.932;8.308;2023-07-29T07:02:07;19.00;99.90
12557;DHT22;6344;49.932;8.308;2023-07-29T07:04:34;19.00;99.90
12557;DHT22;6344;49.932;8.308;2023-07-29T07:07:01;19.10;99.90
12557;DHT22;6344;49.932;8.308;2023-07-29T07:09:28;19.20;99.90
12557;DHT22;6344;49.932;8.308;2023-07-29T07:11:54;19.20;99.90
12557;DHT22;6344;49.932;8.308;2023-07-29T07:14:21;19.30;99.90
12557;DHT22;6344;49.932;8.308;2023-07-29T07:16:48;19.30;99.90
12557;DHT22;6344;49.932;8.308;2023-07-29T07:19:14;19.20;99.90
12557;DHT22;6344;49.932;8.308;2023-07-29T07:21:42;19.30;99.90
12557;DHT22;6344;49.932;8.308;2023-07-29T07:24:09;19.30;99.90
12557;DHT22;6344;49.932;8.308;2023-07-29T07:26:36;19.40;99.90
12557;DHT22;6344;49.932;8.308;2023-07-29T07:29:03;19.40;99.90
12557;DHT22;6344;49.932;8.308;2023-07-29T07:31:33;19.40;99.90
12557;DHT22;6344;49.932;8.308;2023-07-29T07:34:00;19.20;99.90
12557;DHT22;6344;49.932;8.308;2023-07-29T07:36:28;19.10;99.90
12557;DHT22;6344;49.932;8.308;2023-07-29T07:38:56;19.10;99.90
12557;DHT22;6344;49.932;8.308;2023-07-29T07:41:23;19.20;99.90
12557;DHT22;6344;49.932;8.308;2023-07-29T07:43:50;19.20;99.90
12557;DHT22;6344;49.932;8.308;2023-07-29T07:46:16;19.20;99.90
12557;DHT22;6344;49.932;8.308;2023-07-29T07:48:43;19.20;99.90
12557;DHT22;6344;49.932;8.308;2023-07-29T07:51:10;19.20;99.90
12557;DHT22;6344;49.932;8.308;2023-07-29T07:53:37;19.30;99.90
12557;DHT22;6344;49.932;8.308;2023-07-29T07:56:05;19.50;99.90
12557;DHT22;6344;49.932;8.308;2023-07-29T07:58:32;19.60;99.90
12557;DHT22;6344;49.932;8.308;2023-07-29T08:01:01;19.70;99.90
12557;DHT22;6344;49.932;8.308;2023-07-29T08:03:28;19.80;99.90
12557;DHT22;6344;49.932;8.308;2023-07-29T08:05:55;20.30;99.90
12557;DHT22;6344;49.932;8.308;2023-07-29T08:08:21;21.20;99.90
12557;DHT22;6344;49.932;8.308;2023-07-29T08:10:48;21.80;99.90
12557;DHT22;6344;49.932;8.308;2023-07-29T08:13:16;22.60;99.90
12557;DHT22;6344;49.932;8.308;2023-07-29T08:15:46;23.00;99.90
12557;DHT22;6344;49.932;8.308;2023-07-29T08:18:12;22.50;99.90
12557;DHT22;6344;49.932;8.308;2023-07-29T08:20:39;22.40;99.90
12557;DHT22;6344;49.932;8.308;2023-07-29T08:23:06;22.50;99.90
12557;DHT22;6344;49.932;8.308;2023-07-29T08:25:32;22.40;99.90
12557;DHT22;6344;49.932;8.308;2023-07-29T08:27:59;22.40;99.90
12557;DHT22;6344;49.932;8.308;2023-07-29T08:30:27;22.60;99.90
12557;DHT22;6344;49.932;8.308;2023-07-29T08:32:54;22.40;99.90
12557;DHT22;6344;49.932;8.308;2023-07-29T08:35:20;22.60;99.90
12557;DHT22;6344;49.932;8.308;2023-07-29T08:37:47;23.10;99.90
12557;DHT22;6344;49.932;8.308;2023-07-29T08:40:14;23.60;99.90
12557;DHT22;6344;49.932;8.308;2023-07-29T08:42:41;23.60;99.90
12557;DHT22;6344;49.932;8.308;2023-07-29T08:45:08;24.00;99.90
12557;DHT22;6344;49.932;8.308;2023-07-29T08:47:38;24.20;99.90
12557;DHT22;6344;49.932;8.308;2023-07-29T08:50:06;24.10;99.90
12557;DHT22;6344;49.932;8.308;2023-07-29T08:52:33;24.30;99.90
12557;DHT22;6344;49.932;8.308;2023-07-29T08:55:00;24.00;99.90
12557;DHT22;6344;49.932;8.308;2023-07-29T08:57:28;24.00;99.90
12557;DHT22;6344;49.932;8.308;2023-07-29T08:59:55;24.20;99.90
12557;DHT22;6344;49.932;8.308;2023-07-29T09:02:23;24.50;99.90
12557;DHT22;6344;49.932;8.308;2023-07-29T09:04:51;25.50;99.90
12557;DHT22;6344;49.932;8.308;2023-07-29T09:07:18;25.70;99.90
12557;DHT22;6344;49.932;8.308;2023-07-29T09:09:45;25.80;99.90
12557;DHT22;6344;49.932;8.308;2023-07-29T09:12:12;26.00;99.90
12557;DHT22;6344;49.932;8.308;2023-07-29T09:14:39;25.40;99.90
12557;DHT22;6344;49.932;8.308;2023-07-29T09:17:07;25.30;99.90
12557;DHT22;6344;49.932;8.308;2023-07-29T09:19:34;25.10;99.90
12557;DHT22;6344;49.932;8.308;2023-07-29T09:22:03;24.80;99.90
12557;DHT22;6344;49.932;8.308;2023-07-29T09:24:29;24.40;99.90
12557;DHT22;6344;49.932;8.308;2023-07-29T09:26:57;23.90;99.90
12557;DHT22;6344;49.932;8.308;2023-07-29T09:29:28;23.80;99.90
12557;DHT22;6344;49.932;8.308;2023-07-29T09:32:18;23.90;99.90
12557;DHT22;6344;49.932;8.308;2023-07-29T09:34:45;23.80;99.90
12557;DHT22;6344;49.932;8.308;2023-07-29T09:37:17;24.10;99.90
12557;DHT22;6344;49.932;8.308;2023-07-29T09:39:47;24.10;99.90
12557;DHT22;6344;49.932;8.308;2023-07-29T09:42:17;24.70;99.90
12557;DHT22;6344;49.932;8.308;2023-07-29T09:44:44;25.60;99.90
12557;DHT22;6344;49.932;8.308;2023-07-29T09:47:19;26.50;99.90
12557;DHT22;6344;49.932;8.308;2023-07-29T09:49:47;27.10;99.90
12557;DHT22;6344;49.932;8.308;2023-07-29T09:52:16;27.40;99.90
12557;DHT22;6344;49.932;8.308;2023-07-29T09:54:43;27.60;99.90
12557;DHT22;6344;49.932;8.308;2023-07-29T09:57:10;27.90;99.90
12557;DHT22;6344;49.932;8.308;2023-07-29T09:59:37;28.10;99.90
12557;DHT22;6344;49.932;8.308;2023-07-29T10:02:04;28.70;99.90
12557;DHT22;6344;49.932;8.308;2023-07-29T10:04:31;29.00;99.90
12557;DHT22;6344;49.932;8.308;2023-07-29T10:06:59;28.80;99.90
12557;DHT22;6344;49.932;8.308;2023-07-29T10:09:28;28.20;99.90
12557;DHT22;6344;49.932;8.308;2023-07-29T10:11:55;28.00;99.90
12557;DHT22;6344;49.932;8.308;2023-07-29T10:14:24;28.00;99.90
12557;DHT22;6344;49.932;8.308;2023-07-29T10:16:55;27.40;99.90
12557;DHT22;6344;49.932;8.308;2023-07-29T10:19:23;26.80;99.90
12557;DHT22;6344;49.932;8.308;2023-07-29T10:21:51;26.30;99.90
12557;DHT22;6344;49.932;8.308;2023-07-29T10:24:19;26.90;99.90
12557;DHT22;6344;49.932;8.308;2023-07-29T10:26:57;28.10;99.90
12557;DHT22;6344;49.932;8.308;2023-07-29T10:29:29;29.00;99.90
12557;DHT22;6344;49.932;8.308;2023-07-29T10:31:57;30.50;99.90
12557;DHT22;6344;49.932;8.308;2023-07-29T10:34:25;31.20;99.90
12557;DHT22;6344;49.932;8.308;2023-07-29T10:36:52;30.90;99.90
12557;DHT22;6344;49.932;8.308;2023-07-29T10:39:19;29.60;99.90
12557;DHT22;6344;49.932;8.308;2023-07-29T10:41:58;29.20;99.90
12557;DHT22;6344;49.932;8.308;2023-07-29T10:44:47;28.60;99.90
12557;DHT22;6344;49.932;8.308;2023-07-29T10:47:16;28.70;99.90
12557;DHT22;6344;49.932;8.308;2023-07-29T10:49:43;28.30;99.90
12557;DHT22;6344;49.932;8.308;2023-07-29T10:52:13;27.50;99.90
12557;DHT22;6344;49.932;8.308;2023-07-29T10:54:43;27.10;99.90
12557;DHT22;6344;49.932;8.308;2023-07-29T10:57:15;26.90;99.90
12557;DHT22;6344;49.932;8.308;2023-07-29T10:59:54;26.70;99.90
12557;DHT22;6344;49.932;8.308;2023-07-29T11:02:21;27.20;99.90
12557;DHT22;6344;49.932;8.308;2023-07-29T11:04:54;28.70;99.90
12557;DHT22;6344;49.932;8.308;2023-07-29T11:07:25;29.20;99.90
12557;DHT22;6344;49.932;8.308;2023-07-29T11:10:02;29.40;99.90
12557;DHT22;6344;49.932;8.308;2023-07-29T11:12:39;29.10;99.90
12557;DHT22;6344;49.932;8.308;2023-07-29T11:15:13;28.70;99.90
12557;DHT22;6344;49.932;8.308;2023-07-29T11:17:40;29.00;99.90
12557;DHT22;6344;49.932;8.308;2023-07-29T11:20:08;29.40;99.90
12557;DHT22;6344;49.932;8.308;2023-07-29T11:22:35;30.40;99.90
12557;DHT22;6344;49.932;8.308;2023-07-29T11:25:02;31.10;99.90
12557;DHT22;6344;49.932;8.308;2023-07-29T11:27:30;31.70;99.90
12557;DHT22;6344;49.932;8.308;2023-07-29T11:29:59;32.40;99.90
12557;DHT22;6344;49.932;8.308;2023-07-29T11:32:26;32.70;99.90
12557;DHT22;6344;49.932;8.308;2023-07-29T11:34:52;32.20;99.90
12557;DHT22;6344;49.932;8.308;2023-07-29T11:37:19;31.30;99.90
12557;DHT22;6344;49.932;8.308;2023-07-29T11:39:47;30.90;99.90
12557;DHT22;6344;49.932;8.308;2023-07-29T11:42:14;30.60;99.90
12557;DHT22;6344;49.932;8.308;2023-07-29T11:44:42;29.70;99.90
12557;DHT22;6344;49.932;8.308;2023-07-29T11:47:10;29.00;99.90
12557;DHT22;6344;49.932;8.308;2023-07-29T11:49:39;29.40;99.90
12557;DHT22;6344;49.932;8.308;2023-07-29T11:52:07;30.40;99.90
12557;DHT22;6344;49.932;8.308;2023-07-29T11:54:35;31.60;99.90
12557;DHT22;6344;49.932;8.308;2023-07-29T11:57:03;32.30;99.90
12557;DHT22;6344;49.932;8.308;2023-07-29T11:59:32;31.40;99.90
12557;DHT22;6344;49.932;8.308;2023-07-29T12:02:00;32.00;99.90
12557;DHT22;6344;49.932;8.308;2023-07-29T12:04:28;32.10;99.90
12557;DHT22;6344;49.932;8.308;2023-07-29T12:06:56;31.60;99.90
12557;DHT22;6344;49.932;8.308;2023-07-29T12:09:23;31.60;99.90
12557;DHT22;6344;49.932;8.308;2023-07-29T12:11:50;31.00;99.90
12557;DHT22;6344;49.932;8.308;2023-07-29T12:14:17;30.80;99.90
12557;DHT22;6344;49.932;8.308;2023-07-29T12:16:44;30.80;99.90
12557;DHT22;6344;49.932;8.308;2023-07-29T12:19:12;31.60;99.90
12557;DHT22;6344;49.932;8.308;2023-07-29T12:21:40;31.20;99.90
12557;DHT22;6344;49.932;8.308;2023-07-29T12:24:07;31.20;99.90
12557;DHT22;6344;49.932;8.308;2023-07-29T12:26:35;31.30;99.90
12557;DHT22;6344;49.932;8.308;2023-07-29T12:29:11;31.30;99.90
12557;DHT22;6344;49.932;8.308;2023-07-29T12:31:38;31.00;99.90
12557;DHT22;6344;49.932;8.308;2023-07-29T12:34:05;31.00;99.90
12557;DHT22;6344;49.932;8.308;2023-07-29T12:36:42;31.30;99.90
12557;DHT22;6344;49.932;8.308;2023-07-29T12:39:16;31.30;99.90
12557;DHT22;6344;49.932;8.308;2023-07-29T12:41:43;31.50;99.90
12557;DHT22;6344;49.932;8.308;2023-07-29T12:44:10;32.00;99.90
12557;DHT22;6344;49.932;8.308;2023-07-29T12:46:36;31.90;99.90
12557;DHT22;6344;49.932;8.308;2023-07-29T12:49:03;32.00;99.90
12557;DHT22;6344;49.932;8.308;2023-07-29T12:51:30;32.60;99.90
12557;DHT22;6344;49.932;8.308;2023-07-29T12:53:58;32.70;99.90
12557;DHT22;6344;49.932;8.308;2023-07-29T12:56:24;32.70;99.90
12557;DHT22;6344;49.932;8.308;2023-07-29T12:58:51;32.90;99.90
12557;DHT22;6344;49.932;8.308;2023-07-29T13:01:18;32.20;99.90
12557;DHT22;6344;49.932;8.308;2023-07-29T13:03:45;31.60;99.90
12557;DHT22;6344;49.932;8.308;2023-07-29T13:06:11;31.60;99.90
12557;DHT22;6344;49.932;8.308;2023-07-29T13:08:38;31.50;99.90
12557;DHT22;6344;49.932;8.308;2023-07-29T13:11:06;31.60;99.90
12557;DHT22;6344;49.932;8.308;2023-07-29T13:13:33;32.20;99.90
12557;DHT22;6344;49.932;8.308;2023-07-29T13:16:00;31.40;99.90
12557;DHT22;6344;49.932;8.308;2023-07-29T13:18:27;31.30;99.90
12557;DHT22;6344;49.932;8.308;2023-07-29T13:20:53;31.60;99.90
12557;DHT22;6344;49.932;8.308;2023-07-29T13:23:20;31.50;99.90
12557;DHT22;6344;49.932;8.308;2023-07-29T13:25:47;31.20;99.90
12557;DHT22;6344;49.932;8.308;2023-07-29T13:28:16;31.80;99.90
12557;DHT22;6344;49.932;8.308;2023-07-29T13:30:42;31.90;99.90
12557;DHT22;6344;49.932;8.308;2023-07-29T13:33:09;32.40;99.90
12557;DHT22;6344;49.932;8.308;2023-07-29T13:35:36;31.60;99.90
12557;DHT22;6344;49.932;8.308;2023-07-29T13:38:03;30.70;99.90
12557;DHT22;6344;49.932;8.308;2023-07-29T13:40:29;31.20;99.90
12557;DHT22;6344;49.932;8.308;2023-07-29T13:42:56;32.50;99.90
12557;DHT22;6344;49.932;8.308;2023-07-29T13:45:24;33.70;99.90
12557;DHT22;6344;49.932;8.308;2023-07-29T13:47:51;32.80;99.90
12557;DHT22;6344;49.932;8.308;2023-07-29T13:50:17;32.10;99.90
12557;DHT22;6344;49.932;8.308;2023-07-29T13:52:44;31.70;99.90
12557;DHT22;6344;49.932;8.308;2023-07-29T13:55:11;31.70;99.90
12557;DHT22;6344;49.932;8.308;2023-07-29T13:57:37;32.40;99.90
12557;DHT22;6344;49.932;8.308;2023-07-29T14:00:06;32.70;99.90
12557;DHT22;6344;49.932;8.308;2023-07-29T14:02:34;32.30;99.90
12557;DHT22;6344;49.932;8.308;2023-07-29T14:05:01;32.10;99.90
12557;DHT22;6344;49.932;8.308;2023-07-29T14:07:28;32.30;99.90
12557;DHT22;6344;49.932;8.308;2023-07-29T14:09:54;32.60;99.90
12557;DHT22;6344;49.932;8.308;2023-07-29T14:12:21;32.40;99.90
12557;DHT22;6344;49.932;8.308;2023-07-29T14:14:48;32.90;99.90
12557;DHT22;6344;49.932;8.308;2023-07-29T14:17:14;32.50;99.90
12557;DHT22;6344;49.932;8.308;2023-07-29T14:19:42;31.80;99.90
12557;DHT22;6344;49.932;8.308;2023-07-29T14:22:09;32.20;99.90
12557;DHT22;6344;49.932;8.308;2023-07-29T14:24:36;32.00;99.90
12557;DHT22;6344;49.932;8.308;2023-07-29T14:27:02;32.80;99.90
12557;DHT22;6344;49.932;8.308;2023-07-29T14:29:29;33.20;99.90
12557;DHT22;6344;49.932;8.308;2023-07-29T14:31:56;32.40;99.90
12557;DHT22;6344;49.932;8.308;2023-07-29T14:34:22;31.30;99.90
12557;DHT22;6344;49.932;8.308;2023-07-29T14:36:50;30.80;99.90
12557;DHT22;6344;49.932;8.308;2023-07-29T14:39:17;31.30;99.90
12557;DHT22;6344;49.932;8.308;2023-07-29T14:41:44;31.50;99.90
12557;DHT22;6344;49.932;8.308;2023-07-29T14:44:10;31.10;99.90
12557;DHT22;6344;49.932;8.308;2023-07-29T14:46:37;31.30;99.90
12557;DHT22;6344;49.932;8.308;2023-07-29T14:49:03;31.00;99.90
12557;DHT22;6344;49.932;8.308;2023-07-29T14:51:30;30.30;99.90
12557;DHT22;6344;49.932;8.308;2023-07-29T14:53:58;29.60;99.90
12557;DHT22;6344;49.932;8.308;2023-07-29T14:56:25;28.80;99.90
12557;DHT22;6344;49.932;8.308;2023-07-29T14:58:51;28.90;99.90
12557;DHT22;6344;49.932;8.308;2023-07-29T15:01:18;28.80;99.90
12557;DHT22;6344;49.932;8.308;2023-07-29T15:03:45;29.90;99.90
12557;DHT22;6344;49.932;8.308;2023-07-29T15:06:11;30.50;99.90
12557;DHT22;6344;49.932;8.308;2023-07-29T15:08:38;30.20;99.90
12557;DHT22;6344;49.932;8.308;2023-07-29T15:11:06;30.20;99.90
12557;DHT22;6344;49.932;8.308;2023-07-29T15:13:32;29.30;99.90
12557;DHT22;6344;49.932;8.308;2023-07-29T15:15:59;28.80;99.90
12557;DHT22;6344;49.932;8.308;2023-07-29T15:18:26;28.70;99.90
12557;DHT22;6344;49.932;8.308;2023-07-29T15:20:55;28.90;99.90
12557;DHT22;6344;49.932;8.308;2023-07-29T15:23:22;29.40;99.90
12557;DHT22;6344;49.932;8.308;2023-07-29T15:25:49;30.00;99.90
12557;DHT22;6344;49.932;8.308;2023-07-29T15:28:16;29.40;99.90
12557;DHT22;6344;49.932;8.308;2023-07-29T15:30:43;29.40;99.90
12557;DHT22;6344;49.932;8.308;2023-07-29T15:33:10;30.30;99.90
12557;DHT22;6344;49.932;8.308;2023-07-29T15:35:38;30.50;99.90
12557;DHT22;6344;49.932;8.308;2023-07-29T15:38:05;30.50;99.90
12557;DHT22;6344;49.932;8.308;2023-07-29T15:40:32;29.80;99.90
12557;DHT22;6344;49.932;8.308;2023-07-29T15:42:58;29.40;99.90
12557;DHT22;6344;49.932;8.308;2023-07-29T15:45:26;28.80;99.90
12557;DHT22;6344;49.932;8.308;2023-07-29T15:47:53;28.40;99.90